sensor_id;sensor_type;location;lat;lon;timestamp;P1;durP1;ratioP1;P2;durP2;ratioP2
8895;SDS011;4484;48.928;10.066;2023-01-01T00:00:15;20.00;;;13.13;;
8895;SDS011;4484;48.928;10.066;2023-01-01T00:02:42;17.73;;;11.10;;
8895;SDS011;4484;48.928;10.066;2023-01-01T00:05:09;17.90;;;9.77;;
8895;SDS011;4484;48.928;10.066;2023-01-01T00:07:36;15.97;;;9.63;;
8895;SDS011;4484;48.928;10.066;2023-01-01T00:10:03;17.10;;;9.37;;
8895;SDS011;4484;48.928;10.066;2023-01-01T00:12:49;14.17;;;8.90;;
8895;SDS011;4484;48.928;10.066;2023-01-01T00:15:17;15.03;;;9.17;;
8895;SDS011;4484;48.928;10.066;2023-01-01T00:17:47;13.80;;;8.93;;
8895;SDS011;4484;48.928;10.066;2023-01-01T00:20:14;13.47;;;9.50;;
8895;SDS011;4484;48.928;10.066;2023-01-01T00:22:41;18.13;;;10.60;;
8895;SDS011;4484;48.928;10.066;2023-01-01T00:25:20;14.87;;;10.23;;
8895;SDS011;4484;48.928;10.066;2023-01-01T00:27:46;14.40;;;10.70;;
8895;SDS011;4484;48.928;10.066;2023-01-01T00:30:13;18.53;;;11.63;;
8895;SDS011;4484;48.928;10.066;2023-01-01T00:32:40;12.97;;;10.10;;
8895;SDS011;4484;48.928;10.066;2023-01-01T00:35:20;19.37;;;12.67;;
8895;SDS011;4484;48.928;10.066;2023-01-01T00:37:47;20.10;;;11.83;;
8895;SDS011;4484;48.928;10.066;2023-01-01T00:40:14;16.10;;;10.67;;
8895;SDS011;4484;48.928;10.066;2023-01-01T00:42:40;17.50;;;11.53;;
8895;SDS011;4484;48.928;10.066;2023-01-01T00:45:07;17.60;;;10.63;;
8895;SDS011;4484;48.928;10.066;2023-01-01T00:47:40;13.77;;;10.07;;
8895;SDS011;4484;48.928;10.066;2023-01-01T00:50:07;20.80;;;11.70;;
8895;SDS011;4484;48.928;10.066;2023-01-01T00:52:34;14.50;;;10.43;;
8895;SDS011;4484;48.928;10.066;2023-01-01T00:55:01;16.33;;;10.90;;
8895;SDS011;4484;48.928;10.066;2023-01-01T00:57:29;17.30;;;10.77;;
8895;SDS011;4484;48.928;10.066;2023-01-01T00:59:56;16.03;;;10.10;;
8895;SDS011;4484;48.928;10.066;2023-01-01T01:02:23;14.73;;;9.87;;
8895;SDS011;4484;48.928;10.066;2023-01-01T01:04:50;12.47;;;9.13;;
8895;SDS011;4484;48.928;10.066;2023-01-01T01:07:17;14.07;;;8.70;;
8895;SDS011;4484;48.928;10.066;2023-01-01T01:09:44;12.57;;;8.73;;
8895;SDS011;4484;48.928;10.066;2023-01-01T01:12:11;15.80;;;9.20;;
8895;SDS011;4484;48.928;10.066;2023-01-01T01:14:44;13.27;;;9.93;;
8895;SDS011;4484;48.928;10.066;2023-01-01T01:17:12;12.03;;;9.00;;
8895;SDS011;4484;48.928;10.066;2023-01-01T01:19:39;14.23;;;10.37;;
8895;SDS011;4484;48.928;10.066;2023-01-01T01:22:05;16.03;;;10.33;;
8895;SDS011;4484;48.928;10.066;2023-01-01T01:24:32;14.47;;;9.47;;
8895;SDS011;4484;48.928;10.066;2023-01-01T01:26:59;20.30;;;11.37;;
8895;SDS011;4484;48.928;10.066;2023-01-01T01:29:26;16.83;;;10.83;;
8895;SDS011;4484;48.928;10.066;2023-01-01T01:31:53;14.80;;;10.37;;
8895;SDS011;4484;48.928;10.066;2023-01-01T01:34:21;17.77;;;10.57;;
8895;SDS011;4484;48.928;10.066;2023-01-01T01:36:53;15.17;;;10.87;;
8895;SDS011;4484;48.928;10.066;2023-01-01T01:39:20;12.47;;;9.30;;
8895;SDS011;4484;48.928;10.066;2023-01-01T01:41:47;15.77;;;10.63;;
8895;SDS011;4484;48.928;10.066;2023-01-01T01:47:26;18.07;;;10.30;;
8895;SDS011;4484;48.928;10.066;2023-01-01T01:50:34;14.27;;;9.43;;
8895;SDS011;4484;48.928;10.066;2023-01-01T01:53:16;12.07;;;8.10;;
8895;SDS011;4484;48.928;10.066;2023-01-01T01:55:58;9.40;;;6.30;;
8895;SDS011;4484;48.928;10.066;2023-01-01T01:58:28;11.30;;;6.60;;
8895;SDS011;4484;48.928;10.066;2023-01-01T02:00:58;8.67;;;5.50;;
8895;SDS011;4484;48.928;10.066;2023-01-01T02:06:09;9.53;;;5.43;;
8895;SDS011;4484;48.928;10.066;2023-01-01T02:08:39;7.90;;;4.93;;
8895;SDS011;4484;48.928;10.066;2023-01-01T02:11:06;7.13;;;5.20;;
8895;SDS011;4484;48.928;10.066;2023-01-01T02:13:37;7.13;;;4.57;;
8895;SDS011;4484;48.928;10.066;2023-01-01T02:16:10;7.13;;;5.00;;
8895;SDS011;4484;48.928;10.066;2023-01-01T02:21:23;7.33;;;5.07;;
8895;SDS011;4484;48.928;10.066;2023-01-01T02:30:04;7.13;;;5.00;;
8895;SDS011;4484;48.928;10.066;2023-01-01T02:32:35;5.30;;;4.43;;
8895;SDS011;4484;48.928;10.066;2023-01-01T02:35:09;6.17;;;4.57;;
8895;SDS011;4484;48.928;10.066;2023-01-01T02:37:59;9.27;;;5.33;;
8895;SDS011;4484;48.928;10.066;2023-01-01T02:40:46;8.37;;;6.10;;
8895;SDS011;4484;48.928;10.066;2023-01-01T02:43:16;7.17;;;5.30;;
8895;SDS011;4484;48.928;10.066;2023-01-01T02:45:50;9.20;;;5.53;;
8895;SDS011;4484;48.928;10.066;2023-01-01T02:51:28;9.90;;;5.77;;
8895;SDS011;4484;48.928;10.066;2023-01-01T03:02:33;10.63;;;6.37;;
8895;SDS011;4484;48.928;10.066;2023-01-01T03:05:35;11.77;;;6.10;;
8895;SDS011;4484;48.928;10.066;2023-01-01T03:08:45;9.53;;;6.67;;
8895;SDS011;4484;48.928;10.066;2023-01-01T03:11:22;10.20;;;6.37;;
8895;SDS011;4484;48.928;10.066;2023-01-01T03:19:02;9.27;;;6.07;;
8895;SDS011;4484;48.928;10.066;2023-01-01T03:24:31;9.77;;;6.13;;
8895;SDS011;4484;48.928;10.066;2023-01-01T03:27:06;11.07;;;6.20;;
8895;SDS011;4484;48.928;10.066;2023-01-01T03:29:44;9.60;;;6.23;;
8895;SDS011;4484;48.928;10.066;2023-01-01T03:32:15;10.13;;;6.80;;
8895;SDS011;4484;48.928;10.066;2023-01-01T03:34:48;8.93;;;6.60;;
8895;SDS011;4484;48.928;10.066;2023-01-01T03:37:22;11.17;;;7.00;;
8895;SDS011;4484;48.928;10.066;2023-01-01T03:39:52;8.93;;;6.33;;
8895;SDS011;4484;48.928;10.066;2023-01-01T03:42:25;9.10;;;6.27;;
8895;SDS011;4484;48.928;10.066;2023-01-01T03:45:23;9.30;;;6.43;;
8895;SDS011;4484;48.928;10.066;2023-01-01T03:47:58;9.87;;;6.70;;
8895;SDS011;4484;48.928;10.066;2023-01-01T03:50:28;11.20;;;6.80;;
8895;SDS011;4484;48.928;10.066;2023-01-01T03:53:12;12.37;;;8.00;;
8895;SDS011;4484;48.928;10.066;2023-01-01T03:55:52;11.40;;;7.87;;
8895;SDS011;4484;48.928;10.066;2023-01-01T03:58:34;10.67;;;6.30;;
8895;SDS011;4484;48.928;10.066;2023-01-01T04:01:17;9.53;;;6.70;;
8895;SDS011;4484;48.928;10.066;2023-01-01T04:03:58;10.37;;;6.67;;
8895;SDS011;4484;48.928;10.066;2023-01-01T04:06:30;10.67;;;6.20;;
8895;SDS011;4484;48.928;10.066;2023-01-01T04:08:58;8.63;;;5.77;;
8895;SDS011;4484;48.928;10.066;2023-01-01T04:11:29;11.17;;;6.23;;
8895;SDS011;4484;48.928;10.066;2023-01-01T04:17:05;10.40;;;6.50;;
8895;SDS011;4484;48.928;10.066;2023-01-01T04:19:33;8.43;;;6.43;;
8895;SDS011;4484;48.928;10.066;2023-01-01T04:22:01;8.17;;;5.70;;
8895;SDS011;4484;48.928;10.066;2023-01-01T04:24:28;8.10;;;5.40;;
8895;SDS011;4484;48.928;10.066;2023-01-01T04:26:56;9.77;;;5.90;;
8895;SDS011;4484;48.928;10.066;2023-01-01T04:29:23;10.13;;;6.30;;
8895;SDS011;4484;48.928;10.066;2023-01-01T04:31:50;8.77;;;5.97;;
8895;SDS011;4484;48.928;10.066;2023-01-01T04:34:17;9.60;;;6.00;;
8895;SDS011;4484;48.928;10.066;2023-01-01T04:36:44;8.60;;;5.80;;
8895;SDS011;4484;48.928;10.066;2023-01-01T04:39:12;9.40;;;5.83;;
8895;SDS011;4484;48.928;10.066;2023-01-01T04:41:39;10.33;;;5.93;;
8895;SDS011;4484;48.928;10.066;2023-01-01T04:44:06;10.93;;;6.83;;
8895;SDS011;4484;48.928;10.066;2023-01-01T04:46:33;8.67;;;6.07;;
8895;SDS011;4484;48.928;10.066;2023-01-01T04:49:00;10.53;;;6.93;;
8895;SDS011;4484;48.928;10.066;2023-01-01T04:51:27;9.13;;;6.30;;
8895;SDS011;4484;48.928;10.066;2023-01-01T04:53:54;9.57;;;6.33;;
8895;SDS011;4484;48.928;10.066;2023-01-01T04:56:21;8.43;;;6.10;;
8895;SDS011;4484;48.928;10.066;2023-01-01T04:58:48;10.40;;;6.50;;
8895;SDS011;4484;48.928;10.066;2023-01-01T05:01:17;9.40;;;6.17;;
8895;SDS011;4484;48.928;10.066;2023-01-01T05:03:46;12.07;;;6.23;;
8895;SDS011;4484;48.928;10.066;2023-01-01T05:06:14;11.73;;;6.77;;
8895;SDS011;4484;48.928;10.066;2023-01-01T05:08:42;9.40;;;5.90;;
8895;SDS011;4484;48.928;10.066;2023-01-01T05:11:12;8.77;;;5.67;;
8895;SDS011;4484;48.928;10.066;2023-01-01T05:13:42;10.20;;;6.43;;
8895;SDS011;4484;48.928;10.066;2023-01-01T05:16:11;9.40;;;6.50;;
8895;SDS011;4484;48.928;10.066;2023-01-01T05:18:42;10.87;;;6.23;;
8895;SDS011;4484;48.928;10.066;2023-01-01T05:21:10;11.90;;;5.63;;
8895;SDS011;4484;48.928;10.066;2023-01-01T05:23:48;7.17;;;5.53;;
8895;SDS011;4484;48.928;10.066;2023-01-01T05:26:19;9.80;;;6.23;;
8895;SDS011;4484;48.928;10.066;2023-01-01T05:28:48;8.77;;;5.93;;
8895;SDS011;4484;48.928;10.066;2023-01-01T05:31:17;8.40;;;5.93;;
8895;SDS011;4484;48.928;10.066;2023-01-01T05:33:46;9.87;;;5.93;;
8895;SDS011;4484;48.928;10.066;2023-01-01T05:36:14;13.43;;;6.70;;
8895;SDS011;4484;48.928;10.066;2023-01-01T05:38:47;10.60;;;6.93;;
8895;SDS011;4484;48.928;10.066;2023-01-01T05:41:15;10.50;;;6.63;;
8895;SDS011;4484;48.928;10.066;2023-01-01T05:43:43;9.90;;;5.87;;
8895;SDS011;4484;48.928;10.066;2023-01-01T05:46:12;8.67;;;5.87;;
8895;SDS011;4484;48.928;10.066;2023-01-01T05:48:42;10.83;;;6.20;;
8895;SDS011;4484;48.928;10.066;2023-01-01T05:51:10;12.53;;;6.30;;
8895;SDS011;4484;48.928;10.066;2023-01-01T05:53:42;9.73;;;5.93;;
8895;SDS011;4484;48.928;10.066;2023-01-01T05:56:12;10.67;;;6.93;;
8895;SDS011;4484;48.928;10.066;2023-01-01T05:58:41;10.90;;;6.87;;
8895;SDS011;4484;48.928;10.066;2023-01-01T06:01:16;8.23;;;6.17;;
8895;SDS011;4484;48.928;10.066;2023-01-01T06:03:48;9.27;;;6.33;;
8895;SDS011;4484;48.928;10.066;2023-01-01T06:06:16;10.90;;;6.67;;
8895;SDS011;4484;48.928;10.066;2023-01-01T06:08:49;8.60;;;6.33;;
8895;SDS011;4484;48.928;10.066;2023-01-01T06:11:17;9.00;;;6.73;;
8895;SDS011;4484;48.928;10.066;2023-01-01T06:13:44;9.93;;;6.90;;
8895;SDS011;4484;48.928;10.066;2023-01-01T06:16:12;8.60;;;6.37;;
8895;SDS011;4484;48.928;10.066;2023-01-01T06:18:39;8.97;;;6.17;;
8895;SDS011;4484;48.928;10.066;2023-01-01T06:21:17;10.10;;;5.97;;
8895;SDS011;4484;48.928;10.066;2023-01-01T06:23:46;9.97;;;6.20;;
8895;SDS011;4484;48.928;10.066;2023-01-01T06:26:14;10.30;;;6.10;;
8895;SDS011;4484;48.928;10.066;2023-01-01T06:28:43;6.33;;;4.90;;
8895;SDS011;4484;48.928;10.066;2023-01-01T06:31:11;9.90;;;6.17;;
8895;SDS011;4484;48.928;10.066;2023-01-01T06:33:40;10.33;;;6.13;;
8895;SDS011;4484;48.928;10.066;2023-01-01T06:36:08;9.37;;;5.63;;
8895;SDS011;4484;48.928;10.066;2023-01-01T06:38:38;7.77;;;5.63;;
8895;SDS011;4484;48.928;10.066;2023-01-01T06:41:09;8.27;;;5.53;;
8895;SDS011;4484;48.928;10.066;2023-01-01T06:43:37;8.70;;;5.37;;
8895;SDS011;4484;48.928;10.066;2023-01-01T06:46:05;7.80;;;5.27;;
8895;SDS011;4484;48.928;10.066;2023-01-01T06:48:36;7.97;;;5.23;;
8895;SDS011;4484;48.928;10.066;2023-01-01T06:51:05;8.80;;;6.00;;
8895;SDS011;4484;48.928;10.066;2023-01-01T06:53:38;13.70;;;6.47;;
8895;SDS011;4484;48.928;10.066;2023-01-01T06:56:05;9.40;;;5.80;;
8895;SDS011;4484;48.928;10.066;2023-01-01T06:58:33;7.73;;;4.73;;
8895;SDS011;4484;48.928;10.066;2023-01-01T07:01:16;8.43;;;5.10;;
8895;SDS011;4484;48.928;10.066;2023-01-01T07:03:51;6.23;;;4.80;;
8895;SDS011;4484;48.928;10.066;2023-01-01T07:06:20;7.50;;;4.47;;
8895;SDS011;4484;48.928;10.066;2023-01-01T07:08:49;8.23;;;4.40;;
8895;SDS011;4484;48.928;10.066;2023-01-01T07:11:16;8.33;;;4.20;;
8895;SDS011;4484;48.928;10.066;2023-01-01T07:13:43;6.30;;;4.37;;
8895;SDS011;4484;48.928;10.066;2023-01-01T07:16:10;7.93;;;4.80;;
8895;SDS011;4484;48.928;10.066;2023-01-01T07:18:39;7.20;;;4.13;;
8895;SDS011;4484;48.928;10.066;2023-01-01T07:23:58;6.50;;;4.10;;
8895;SDS011;4484;48.928;10.066;2023-01-01T07:26:27;4.93;;;3.33;;
8895;SDS011;4484;48.928;10.066;2023-01-01T07:28:55;4.90;;;2.80;;
8895;SDS011;4484;48.928;10.066;2023-01-01T07:31:31;6.00;;;3.00;;
8895;SDS011;4484;48.928;10.066;2023-01-01T07:33:58;16.30;;;9.30;;
8895;SDS011;4484;48.928;10.066;2023-01-01T07:36:25;17.60;;;9.73;;
8895;SDS011;4484;48.928;10.066;2023-01-01T07:38:53;21.17;;;10.97;;
8895;SDS011;4484;48.928;10.066;2023-01-01T07:41:20;25.07;;;14.63;;
8895;SDS011;4484;48.928;10.066;2023-01-01T07:43:47;17.23;;;10.47;;
8895;SDS011;4484;48.928;10.066;2023-01-01T07:46:14;15.40;;;9.60;;
8895;SDS011;4484;48.928;10.066;2023-01-01T07:48:41;17.50;;;10.90;;
8895;SDS011;4484;48.928;10.066;2023-01-01T07:51:08;18.70;;;9.00;;
8895;SDS011;4484;48.928;10.066;2023-01-01T07:53:35;17.13;;;9.27;;
8895;SDS011;4484;48.928;10.066;2023-01-01T07:56:02;11.80;;;5.93;;
8895;SDS011;4484;48.928;10.066;2023-01-01T07:58:30;7.57;;;4.47;;
8895;SDS011;4484;48.928;10.066;2023-01-01T08:00:57;7.60;;;4.30;;
8895;SDS011;4484;48.928;10.066;2023-01-01T08:03:23;6.30;;;3.37;;
8895;SDS011;4484;48.928;10.066;2023-01-01T08:05:50;7.50;;;3.00;;
8895;SDS011;4484;48.928;10.066;2023-01-01T08:08:17;6.37;;;3.60;;
8895;SDS011;4484;48.928;10.066;2023-01-01T08:10:44;4.73;;;3.23;;
8895;SDS011;4484;48.928;10.066;2023-01-01T08:13:11;4.70;;;3.57;;
8895;SDS011;4484;48.928;10.066;2023-01-01T08:15:38;5.50;;;3.70;;
8895;SDS011;4484;48.928;10.066;2023-01-01T08:18:05;5.43;;;3.23;;
8895;SDS011;4484;48.928;10.066;2023-01-01T08:20:32;5.93;;;3.30;;
8895;SDS011;4484;48.928;10.066;2023-01-01T08:23:00;7.33;;;3.50;;
8895;SDS011;4484;48.928;10.066;2023-01-01T08:25:32;5.37;;;3.17;;
8895;SDS011;4484;48.928;10.066;2023-01-01T08:28:00;5.00;;;2.83;;
8895;SDS011;4484;48.928;10.066;2023-01-01T08:30:27;6.07;;;3.30;;
8895;SDS011;4484;48.928;10.066;2023-01-01T08:32:54;3.90;;;3.00;;
8895;SDS011;4484;48.928;10.066;2023-01-01T08:35:21;7.57;;;4.33;;
8895;SDS011;4484;48.928;10.066;2023-01-01T08:37:48;6.27;;;4.00;;
8895;SDS011;4484;48.928;10.066;2023-01-01T08:40:15;4.50;;;3.53;;
8895;SDS011;4484;48.928;10.066;2023-01-01T08:42:41;4.07;;;3.50;;
8895;SDS011;4484;48.928;10.066;2023-01-01T08:45:08;7.03;;;3.37;;
8895;SDS011;4484;48.928;10.066;2023-01-01T08:47:36;3.70;;;2.63;;
8895;SDS011;4484;48.928;10.066;2023-01-01T08:50:03;2.93;;;2.47;;
8895;SDS011;4484;48.928;10.066;2023-01-01T08:52:30;3.27;;;2.60;;
8895;SDS011;4484;48.928;10.066;2023-01-01T08:54:57;5.87;;;2.87;;
8895;SDS011;4484;48.928;10.066;2023-01-01T08:57:24;3.67;;;2.70;;
8895;SDS011;4484;48.928;10.066;2023-01-01T08:59:55;6.43;;;3.80;;
8895;SDS011;4484;48.928;10.066;2023-01-01T09:02:22;5.83;;;3.50;;
8895;SDS011;4484;48.928;10.066;2023-01-01T09:04:50;4.80;;;3.40;;
8895;SDS011;4484;48.928;10.066;2023-01-01T09:07:17;4.17;;;2.43;;
8895;SDS011;4484;48.928;10.066;2023-01-01T09:09:44;7.50;;;4.17;;
8895;SDS011;4484;48.928;10.066;2023-01-01T09:12:14;7.47;;;3.97;;
8895;SDS011;4484;48.928;10.066;2023-01-01T09:14:47;6.83;;;4.73;;
8895;SDS011;4484;48.928;10.066;2023-01-01T09:17:14;12.87;;;7.03;;
8895;SDS011;4484;48.928;10.066;2023-01-01T09:19:41;10.83;;;6.63;;
8895;SDS011;4484;48.928;10.066;2023-01-01T09:22:11;10.87;;;5.00;;
8895;SDS011;4484;48.928;10.066;2023-01-01T09:24:38;9.00;;;4.00;;
8895;SDS011;4484;48.928;10.066;2023-01-01T09:27:05;7.87;;;3.53;;
8895;SDS011;4484;48.928;10.066;2023-01-01T09:29:32;5.80;;;2.90;;
8895;SDS011;4484;48.928;10.066;2023-01-01T09:31:59;4.47;;;2.20;;
8895;SDS011;4484;48.928;10.066;2023-01-01T09:34:26;5.17;;;2.80;;
8895;SDS011;4484;48.928;10.066;2023-01-01T09:36:53;3.60;;;2.10;;
8895;SDS011;4484;48.928;10.066;2023-01-01T09:39:20;5.87;;;2.60;;
8895;SDS011;4484;48.928;10.066;2023-01-01T09:42:08;7.07;;;2.27;;
8895;SDS011;4484;48.928;10.066;2023-01-01T09:45:02;4.17;;;2.73;;
8895;SDS011;4484;48.928;10.066;2023-01-01T09:50:11;7.83;;;2.77;;
8895;SDS011;4484;48.928;10.066;2023-01-01T09:52:54;5.97;;;2.40;;
8895;SDS011;4484;48.928;10.066;2023-01-01T09:55:25;3.97;;;2.87;;
8895;SDS011;4484;48.928;10.066;2023-01-01T09:58:11;4.00;;;2.13;;
8895;SDS011;4484;48.928;10.066;2023-01-01T10:00:40;2.53;;;1.83;;
8895;SDS011;4484;48.928;10.066;2023-01-01T10:11:30;4.90;;;2.50;;
8895;SDS011;4484;48.928;10.066;2023-01-01T10:14:06;6.57;;;3.53;;
8895;SDS011;4484;48.928;10.066;2023-01-01T10:16:43;7.43;;;4.57;;
8895;SDS011;4484;48.928;10.066;2023-01-01T10:22:06;8.73;;;4.47;;
8895;SDS011;4484;48.928;10.066;2023-01-01T10:27:11;10.70;;;5.80;;
8895;SDS011;4484;48.928;10.066;2023-01-01T10:29:49;13.57;;;8.87;;
8895;SDS011;4484;48.928;10.066;2023-01-01T10:32:18;11.30;;;7.20;;
8895;SDS011;4484;48.928;10.066;2023-01-01T10:34:59;8.77;;;5.00;;
8895;SDS011;4484;48.928;10.066;2023-01-01T10:37:30;9.43;;;5.13;;
8895;SDS011;4484;48.928;10.066;2023-01-01T10:40:05;4.53;;;2.73;;
8895;SDS011;4484;48.928;10.066;2023-01-01T10:42:41;3.37;;;1.80;;
8895;SDS011;4484;48.928;10.066;2023-01-01T10:45:16;6.77;;;2.13;;
8895;SDS011;4484;48.928;10.066;2023-01-01T10:50:44;5.33;;;1.97;;
8895;SDS011;4484;48.928;10.066;2023-01-01T10:55:56;2.43;;;1.80;;
8895;SDS011;4484;48.928;10.066;2023-01-01T10:58:25;8.13;;;2.30;;
8895;SDS011;4484;48.928;10.066;2023-01-01T11:01:00;4.93;;;2.60;;
8895;SDS011;4484;48.928;10.066;2023-01-01T11:03:28;7.40;;;4.03;;
8895;SDS011;4484;48.928;10.066;2023-01-01T11:05:59;7.47;;;3.97;;
8895;SDS011;4484;48.928;10.066;2023-01-01T11:08:28;8.60;;;4.63;;
8895;SDS011;4484;48.928;10.066;2023-01-01T11:10:57;8.60;;;3.80;;
8895;SDS011;4484;48.928;10.066;2023-01-01T11:13:26;6.43;;;4.00;;
8895;SDS011;4484;48.928;10.066;2023-01-01T11:15:55;7.20;;;4.20;;
8895;SDS011;4484;48.928;10.066;2023-01-01T11:18:24;8.17;;;3.33;;
8895;SDS011;4484;48.928;10.066;2023-01-01T11:21:02;5.63;;;3.57;;
8895;SDS011;4484;48.928;10.066;2023-01-01T11:23:35;6.60;;;3.47;;
8895;SDS011;4484;48.928;10.066;2023-01-01T11:26:05;6.03;;;3.60;;
8895;SDS011;4484;48.928;10.066;2023-01-01T11:28:34;8.07;;;3.00;;
8895;SDS011;4484;48.928;10.066;2023-01-01T11:33:44;3.67;;;2.60;;
8895;SDS011;4484;48.928;10.066;2023-01-01T11:36:18;5.93;;;2.20;;
8895;SDS011;4484;48.928;10.066;2023-01-01T11:39:21;5.53;;;2.50;;
8895;SDS011;4484;48.928;10.066;2023-01-01T11:41:52;4.37;;;2.20;;
8895;SDS011;4484;48.928;10.066;2023-01-01T11:47:06;4.20;;;2.17;;
8895;SDS011;4484;48.928;10.066;2023-01-01T11:49:54;4.13;;;2.37;;
8895;SDS011;4484;48.928;10.066;2023-01-01T11:55:17;5.27;;;2.23;;
8895;SDS011;4484;48.928;10.066;2023-01-01T11:57:55;3.80;;;1.90;;
8895;SDS011;4484;48.928;10.066;2023-01-01T12:00:46;3.00;;;1.50;;
8895;SDS011;4484;48.928;10.066;2023-01-01T12:06:29;7.70;;;2.03;;
8895;SDS011;4484;48.928;10.066;2023-01-01T12:09:11;6.03;;;1.80;;
8895;SDS011;4484;48.928;10.066;2023-01-01T12:11:49;3.47;;;1.90;;
8895;SDS011;4484;48.928;10.066;2023-01-01T12:14:24;4.50;;;1.87;;
8895;SDS011;4484;48.928;10.066;2023-01-01T12:17:02;6.20;;;2.10;;
8895;SDS011;4484;48.928;10.066;2023-01-01T12:19:39;7.83;;;2.10;;
8895;SDS011;4484;48.928;10.066;2023-01-01T12:22:18;4.13;;;2.40;;
8895;SDS011;4484;48.928;10.066;2023-01-01T12:24:46;5.17;;;2.00;;
8895;SDS011;4484;48.928;10.066;2023-01-01T12:30:40;5.23;;;2.80;;
8895;SDS011;4484;48.928;10.066;2023-01-01T12:33:09;4.07;;;2.17;;
8895;SDS011;4484;48.928;10.066;2023-01-01T12:41:31;7.70;;;1.70;;
8895;SDS011;4484;48.928;10.066;2023-01-01T12:53:30;5.43;;;2.27;;
8895;SDS011;4484;48.928;10.066;2023-01-01T12:58:50;7.27;;;1.60;;
8895;SDS011;4484;48.928;10.066;2023-01-01T13:01:22;7.53;;;1.97;;
8895;SDS011;4484;48.928;10.066;2023-01-01T13:04:00;2.43;;;1.70;;
8895;SDS011;4484;48.928;10.066;2023-01-01T13:06:50;4.13;;;1.83;;
8895;SDS011;4484;48.928;10.066;2023-01-01T13:09:25;3.43;;;1.60;;
8895;SDS011;4484;48.928;10.066;2023-01-01T13:11:58;5.20;;;2.20;;
8895;SDS011;4484;48.928;10.066;2023-01-01T13:14:38;6.43;;;2.27;;
8895;SDS011;4484;48.928;10.066;2023-01-01T13:20:34;7.47;;;2.40;;
8895;SDS011;4484;48.928;10.066;2023-01-01T13:22:38;5.10;;;2.13;;
8895;SDS011;4484;48.928;10.066;2023-01-01T13:38:47;6.50;;;2.13;;
8895;SDS011;4484;48.928;10.066;2023-01-01T14:03:42;5.57;;;2.77;;
8895;SDS011;4484;48.928;10.066;2023-01-01T14:06:15;4.10;;;1.97;;
8895;SDS011;4484;48.928;10.066;2023-01-01T14:08:46;4.30;;;2.23;;
8895;SDS011;4484;48.928;10.066;2023-01-01T14:11:35;4.50;;;2.17;;
8895;SDS011;4484;48.928;10.066;2023-01-01T14:14:02;4.53;;;1.70;;
8895;SDS011;4484;48.928;10.066;2023-01-01T14:16:28;4.80;;;1.80;;
8895;SDS011;4484;48.928;10.066;2023-01-01T14:18:59;3.93;;;1.80;;
8895;SDS011;4484;48.928;10.066;2023-01-01T14:21:29;4.27;;;1.60;;
8895;SDS011;4484;48.928;10.066;2023-01-01T14:24:05;3.30;;;1.50;;
8895;SDS011;4484;48.928;10.066;2023-01-01T14:26:35;4.97;;;2.07;;
8895;SDS011;4484;48.928;10.066;2023-01-01T14:29:08;5.33;;;1.70;;
8895;SDS011;4484;48.928;10.066;2023-01-01T14:31:43;4.90;;;2.07;;
8895;SDS011;4484;48.928;10.066;2023-01-01T14:34:18;5.67;;;1.57;;
8895;SDS011;4484;48.928;10.066;2023-01-01T14:36:56;3.07;;;1.47;;
8895;SDS011;4484;48.928;10.066;2023-01-01T14:42:03;9.27;;;1.90;;
8895;SDS011;4484;48.928;10.066;2023-01-01T14:44:34;4.60;;;1.90;;
8895;SDS011;4484;48.928;10.066;2023-01-01T14:47:03;2.60;;;1.27;;
8895;SDS011;4484;48.928;10.066;2023-01-01T14:49:32;4.00;;;1.33;;
8895;SDS011;4484;48.928;10.066;2023-01-01T14:52:05;2.17;;;0.97;;
8895;SDS011;4484;48.928;10.066;2023-01-01T14:54:40;3.33;;;1.47;;
8895;SDS011;4484;48.928;10.066;2023-01-01T14:57:10;4.20;;;1.50;;
8895;SDS011;4484;48.928;10.066;2023-01-01T14:59:46;2.20;;;1.60;;
8895;SDS011;4484;48.928;10.066;2023-01-01T15:02:15;2.77;;;1.30;;
8895;SDS011;4484;48.928;10.066;2023-01-01T15:04:46;3.00;;;1.57;;
8895;SDS011;4484;48.928;10.066;2023-01-01T15:07:32;4.10;;;1.40;;
8895;SDS011;4484;48.928;10.066;2023-01-01T15:10:00;2.17;;;1.53;;
8895;SDS011;4484;48.928;10.066;2023-01-01T15:12:28;2.80;;;1.20;;
8895;SDS011;4484;48.928;10.066;2023-01-01T15:14:59;3.27;;;1.40;;
8895;SDS011;4484;48.928;10.066;2023-01-01T15:17:26;1.90;;;1.40;;
8895;SDS011;4484;48.928;10.066;2023-01-01T15:22:49;4.63;;;2.40;;
8895;SDS011;4484;48.928;10.066;2023-01-01T15:25:17;3.13;;;2.13;;
8895;SDS011;4484;48.928;10.066;2023-01-01T15:27:51;3.63;;;2.33;;
8895;SDS011;4484;48.928;10.066;2023-01-01T15:30:25;4.83;;;1.87;;
8895;SDS011;4484;48.928;10.066;2023-01-01T15:32:53;4.20;;;2.00;;
8895;SDS011;4484;48.928;10.066;2023-01-01T15:35:31;3.83;;;1.77;;
8895;SDS011;4484;48.928;10.066;2023-01-01T15:38:01;5.87;;;2.43;;
8895;SDS011;4484;48.928;10.066;2023-01-01T15:40:34;2.80;;;1.40;;
8895;SDS011;4484;48.928;10.066;2023-01-01T15:45:35;4.13;;;1.60;;
8895;SDS011;4484;48.928;10.066;2023-01-01T15:55:49;3.97;;;1.37;;
8895;SDS011;4484;48.928;10.066;2023-01-01T16:01:19;2.90;;;1.83;;
8895;SDS011;4484;48.928;10.066;2023-01-01T16:03:49;5.17;;;1.87;;
8895;SDS011;4484;48.928;10.066;2023-01-01T16:06:26;4.50;;;2.03;;
8895;SDS011;4484;48.928;10.066;2023-01-01T16:08:53;5.70;;;1.93;;
8895;SDS011;4484;48.928;10.066;2023-01-01T16:11:20;4.00;;;2.00;;
8895;SDS011;4484;48.928;10.066;2023-01-01T16:13:47;4.13;;;1.77;;
8895;SDS011;4484;48.928;10.066;2023-01-01T16:16:33;9.47;;;1.70;;
8895;SDS011;4484;48.928;10.066;2023-01-01T16:19:01;7.20;;;2.03;;
8895;SDS011;4484;48.928;10.066;2023-01-01T16:21:30;6.87;;;2.50;;
8895;SDS011;4484;48.928;10.066;2023-01-01T16:23:58;4.57;;;2.23;;
8895;SDS011;4484;48.928;10.066;2023-01-01T16:26:25;5.17;;;2.37;;
8895;SDS011;4484;48.928;10.066;2023-01-01T16:28:52;3.47;;;2.13;;
8895;SDS011;4484;48.928;10.066;2023-01-01T16:31:24;4.73;;;2.10;;
8895;SDS011;4484;48.928;10.066;2023-01-01T16:33:54;2.03;;;1.67;;
8895;SDS011;4484;48.928;10.066;2023-01-01T16:36:23;4.17;;;1.90;;
8895;SDS011;4484;48.928;10.066;2023-01-01T16:38:52;4.80;;;2.57;;
8895;SDS011;4484;48.928;10.066;2023-01-01T16:41:19;4.23;;;3.17;;
8895;SDS011;4484;48.928;10.066;2023-01-01T16:43:47;7.23;;;2.90;;
8895;SDS011;4484;48.928;10.066;2023-01-01T16:46:14;4.90;;;2.87;;
8895;SDS011;4484;48.928;10.066;2023-01-01T16:48:42;4.07;;;1.93;;
8895;SDS011;4484;48.928;10.066;2023-01-01T16:51:19;4.73;;;2.47;;
8895;SDS011;4484;48.928;10.066;2023-01-01T16:53:48;5.27;;;1.70;;
8895;SDS011;4484;48.928;10.066;2023-01-01T16:56:15;3.57;;;2.13;;
8895;SDS011;4484;48.928;10.066;2023-01-01T16:58:42;3.43;;;2.03;;
8895;SDS011;4484;48.928;10.066;2023-01-01T17:01:16;4.63;;;2.03;;
8895;SDS011;4484;48.928;10.066;2023-01-01T17:03:43;2.87;;;1.83;;
8895;SDS011;4484;48.928;10.066;2023-01-01T17:06:12;5.00;;;2.00;;
8895;SDS011;4484;48.928;10.066;2023-01-01T17:08:39;3.13;;;1.90;;
8895;SDS011;4484;48.928;10.066;2023-01-01T17:11:10;4.17;;;2.13;;
8895;SDS011;4484;48.928;10.066;2023-01-01T17:13:41;4.37;;;1.90;;
8895;SDS011;4484;48.928;10.066;2023-01-01T17:16:12;2.80;;;1.83;;
8895;SDS011;4484;48.928;10.066;2023-01-01T17:18:51;3.83;;;1.63;;
8895;SDS011;4484;48.928;10.066;2023-01-01T17:21:38;4.40;;;1.63;;
8895;SDS011;4484;48.928;10.066;2023-01-01T17:24:05;2.07;;;1.30;;
8895;SDS011;4484;48.928;10.066;2023-01-01T17:26:32;2.37;;;1.30;;
8895;SDS011;4484;48.928;10.066;2023-01-01T17:28:59;1.80;;;1.20;;
8895;SDS011;4484;48.928;10.066;2023-01-01T17:31:28;2.57;;;1.57;;
8895;SDS011;4484;48.928;10.066;2023-01-01T17:33:55;2.27;;;1.33;;
8895;SDS011;4484;48.928;10.066;2023-01-01T17:36:23;1.43;;;1.20;;
8895;SDS011;4484;48.928;10.066;2023-01-01T17:38:52;2.63;;;1.60;;
8895;SDS011;4484;48.928;10.066;2023-01-01T17:41:20;2.60;;;1.60;;
8895;SDS011;4484;48.928;10.066;2023-01-01T17:43:49;5.47;;;1.80;;
8895;SDS011;4484;48.928;10.066;2023-01-01T17:46:20;2.37;;;1.97;;
8895;SDS011;4484;48.928;10.066;2023-01-01T17:48:49;5.17;;;2.67;;
8895;SDS011;4484;48.928;10.066;2023-01-01T17:51:17;5.00;;;2.60;;